Time;durP1;ratioP1;P1;durP2;ratioP2;P2;SDS_P1;SDS_P2;PMS_P1;PMS_P2;Temp;Humidity;BMP_temperature;BMP_pressure;BME280_temperature;BME280_humidity;BME280_pressure;Samples;Min_cycle;Max_cycle;Signal;HPM_P1;HPM_P2
2023/06/16 00:03:27;;;;;;;6.05;3.50;;;;;;;;;;10552182;28;20050;-74
2023/06/16 00:08:33;;;;;;;6.88;3.30;;;;;;;;;;10550465;28;20089;-75
2023/06/16 00:13:35;;;;;;;8.45;4.10;;;;;;;;;;10553361;28;20123;-75
2023/06/16 00:18:43;;;;;;;6.97;3.63;;;;;;;;;;10551678;28;20036;-76
2023/06/16 00:23:48;;;;;;;7.03;3.63;;;;;;;;;;10557454;28;20038;-74
2023/06/16 00:28:52;;;;;;;10.88;3.50;;;;;;;;;;10538962;28;20058;-76
2023/06/16 00:33:55;;;;;;;7.70;3.73;;;;;;;;;;10544592;28;20406;-74
2023/06/16 00:38:59;;;;;;;6.87;3.40;;;;;;;;;;10549909;28;20054;-75
2023/06/16 00:44:02;;;;;;;8.50;3.95;;;;;;;;;;10553609;28;20036;-75
2023/06/16 00:49:05;;;;;;;6.50;3.53;;;;;;;;;;10549950;28;20122;-75
2023/06/16 00:54:10;;;;;;;10.10;3.75;;;;;;;;;;10557502;28;20040;-75
2023/06/16 00:59:14;;;;;;;8.20;3.78;;;;;;;;;;10555647;28;20054;-75
2023/06/16 01:04:20;;;;;;;9.38;3.97;;;;;;;;;;10552180;28;20361;-77
2023/06/16 01:09:30;;;;;;;8.02;3.85;;;;;;;;;;10552527;28;20123;-76
2023/06/16 01:14:39;;;;;;;9.48;4.32;;;;;;;;;;10555378;28;20028;-75
2023/06/16 01:19:46;;;;;;;6.28;3.63;;;;;;;;;;10551472;28;20064;-75
2023/06/16 01:24:53;;;;;;;7.88;4.03;;;;;;;;;;10550335;28;20114;-75
2023/06/16 01:29:56;;;;;;;6.18;3.65;;;;;;;;;;10552892;28;20035;-76
2023/06/16 01:35:00;;;;;;;8.45;4.53;;;;;;;;;;10546983;28;20473;-74
2023/06/16 01:40:05;;;;;;;8.63;3.83;;;;;;;;;;10547285;28;20055;-73
2023/06/16 01:45:08;;;;;;;7.78;4.10;;;;;;;;;;10548264;28;20035;-74
2023/06/16 01:50:11;;;;;;;12.38;4.63;;;;;;;;;;10551621;28;20047;-76
2023/06/16 01:55:15;;;;;;;9.50;4.60;;;;;;;;;;10546331;28;20046;-75
2023/06/16 02:00:19;;;;;;;;;;;;;;;;;;10551794;28;20068;-76
2023/06/16 02:05:24;;;;;;;12.85;4.75;;;;;;;;;;10551500;28;19920;-76
2023/06/16 02:10:30;;;;;;;8.73;4.63;;;;;;;;;;10548771;28;20078;-76
2023/06/16 02:15:33;;;;;;;11.90;5.28;;;;;;;;;;10549049;28;20104;-75
2023/06/16 02:20:35;;;;;;;10.23;4.83;;;;;;;;;;10555539;28;20122;-76
2023/06/16 02:25:40;;;;;;;12.13;4.73;;;;;;;;;;10552403;28;20127;-75
2023/06/16 02:30:43;;;;;;;9.52;4.75;;;;;;;;;;10549457;28;20054;-75
2023/06/16 02:35:45;;;;;;;13.13;5.60;;;;;;;;;;10547168;28;20059;-76
2023/06/16 02:40:50;;;;;;;10.13;5.17;;;;;;;;;;10552667;28;20127;-75
2023/06/16 02:45:53;;;;;;;;;;;;;;;;;;10551389;28;20036;-75
2023/06/16 02:50:55;;;;;;;10.38;4.90;;;;;;;;;;10551646;28;19924;-74
2023/06/16 02:56:00;;;;;;;9.57;5.00;;;;;;;;;;10556869;28;20028;-74
2023/06/16 03:01:03;;;;;;;12.40;5.95;;;;;;;;;;10557790;28;20067;-74
2023/06/16 03:06:07;;;;;;;10.33;4.70;;;;;;;;;;10555935;28;20040;-75
2023/06/16 03:11:10;;;;;;;;;;;;;;;;;;10562407;28;20396;-77
2023/06/16 03:16:16;;;;;;;4.83;2.73;;;;;;;;;;10557272;28;20111;-75
2023/06/16 03:21:19;;;;;;;10.38;5.00;;;;;;;;;;10556512;28;20055;-75
2023/06/16 03:26:24;;;;;;;10.73;4.68;;;;;;;;;;10555954;28;20040;-75
2023/06/16 03:31:30;;;;;;;8.18;4.80;;;;;;;;;;10552588;28;20052;-75
2023/06/16 03:36:35;;;;;;;8.20;4.93;;;;;;;;;;10554143;28;20036;-75
2023/06/16 03:41:38;;;;;;;8.40;4.63;;;;;;;;;;10557263;28;20096;-75
2023/06/16 03:46:47;;;;;;;11.30;5.07;;;;;;;;;;10558306;28;20066;-75
2023/06/16 03:51:50;;;;;;;9.43;5.10;;;;;;;;;;10556621;28;20071;-75
2023/06/16 03:56:53;;;;;;;9.43;4.95;;;;;;;;;;10553856;28;20541;-76
2023/06/16 04:01:57;;;;;;;7.00;3.88;;;;;;;;;;10556222;28;20567;-75
2023/06/16 04:07:01;;;;;;;9.95;4.80;;;;;;;;;;10555264;28;20071;-75
2023/06/16 04:12:04;;;;;;;8.80;4.57;;;;;;;;;;10550055;28;20052;-75
2023/06/16 04:17:08;;;;;;;8.60;4.75;;;;;;;;;;10556771;28;20088;-75
2023/06/16 04:22:11;;;;;;;9.63;4.55;;;;;;;;;;10547336;28;20110;-74
2023/06/16 04:27:22;;;;;;;9.63;4.70;;;;;;;;;;10554551;28;20043;-77
2023/06/16 04:32:30;;;;;;;8.75;4.45;;;;;;;;;;10549976;28;20051;-74
2023/06/16 04:37:34;;;;;;;11.23;5.65;;;;;;;;;;10552495;28;20110;-75
2023/06/16 04:42:43;;;;;;;7.75;4.82;;;;;;;;;;10556482;28;20047;-76
2023/06/16 04:47:47;;;;;;;8.48;4.70;;;;;;;;;;10552483;28;20068;-75
2023/06/16 04:52:51;;;;;;;9.27;4.75;;;;;;;;;;10554524;28;20063;-75
2023/06/16 04:57:54;;;;;;;8.98;4.00;;;;;;;;;;10547326;28;20127;-75
2023/06/16 05:02:57;;;;;;;;;;;;;;;;;;10556420;28;20099;-74
2023/06/16 05:08:02;;;;;;;8.35;4.38;;;;;;;;;;10552266;28;20273;-75
2023/06/16 05:13:04;;;;;;;9.32;4.53;;;;;;;;;;10550694;28;20040;-75
2023/06/16 05:18:07;;;;;;;9.70;4.47;;;;;;;;;;10553597;28;20047;-76
2023/06/16 05:23:11;;;;;;;7.28;4.18;;;;;;;;;;10550194;28;20028;-75
2023/06/16 05:28:14;;;;;;;6.78;3.70;;;;;;;;;;10552618;28;20055;-76
2023/06/16 05:33:17;;;;;;;6.88;4.03;;;;;;;;;;10552164;28;20131;-77
2023/06/16 05:38:20;;;;;;;5.22;3.00;;;;;;;;;;10551904;28;20040;-76
2023/06/16 05:43:24;;;;;;;9.10;4.70;;;;;;;;;;10530261;28;20040;-76
2023/06/16 05:49:02;;;;;;;;;;;;;;;;;;;;;
2023/06/16 05:54:07;;;;;;;8.05;4.40;;;;;;;;;;10553296;28;20053;-82
2023/06/16 05:59:10;;;;;;;8.60;5.05;;;;;;;;;;10552798;28;20036;-82
2023/06/16 06:04:13;;;;;;;8.82;5.28;;;;;;;;;;10547181;28;20091;-82
2023/06/16 06:09:18;;;;;;;8.23;5.20;;;;;;;;;;10550244;28;20124;-81
2023/06/16 06:14:21;;;;;;;8.38;4.80;;;;;;;;;;10541029;28;20588;-82
2023/06/16 06:19:24;;;;;;;8.55;4.53;;;;;;;;;;10549756;28;20043;-81
2023/06/16 06:24:28;;;;;;;4.83;3.17;;;;;;;;;;10538322;28;20040;-82
2023/06/16 06:29:31;;;;;;;9.80;5.28;;;;;;;;;;10544861;28;20054;-82
2023/06/16 06:34:33;;;;;;;10.97;5.00;;;;;;;;;;10546895;28;20040;-86
2023/06/16 06:39:37;;;;;;;9.45;4.95;;;;;;;;;;10528214;28;20048;-87
2023/06/16 06:44:41;;;;;;;8.93;5.03;;;;;;;;;;10548612;28;20047;-86
2023/06/16 06:49:43;;;;;;;9.75;5.20;;;;;;;;;;10548590;28;20044;-86
2023/06/16 06:54:48;;;;;;;8.77;4.22;;;;;;;;;;10546698;28;20032;-87
2023/06/16 06:59:52;;;;;;;7.88;4.47;;;;;;;;;;10545557;28;20052;-88
2023/06/16 07:04:55;;;;;;;10.15;4.65;;;;;;;;;;10550620;28;20040;-86
2023/06/16 07:09:59;;;;;;;8.93;5.03;;;;;;;;;;10541835;28;20044;-86
2023/06/16 07:15:02;;;;;;;6.60;3.90;;;;;;;;;;10550643;28;20276;-86
2023/06/16 07:20:06;;;;;;;10.82;4.63;;;;;;;;;;10550134;28;20036;-85
2023/06/16 07:25:10;;;;;;;6.93;4.32;;;;;;;;;;10531937;28;20420;-85
2023/06/16 07:30:13;;;;;;;9.35;5.28;;;;;;;;;;10547415;28;20036;-86
2023/06/16 07:35:17;;;;;;;8.23;4.10;;;;;;;;;;10544553;28;20036;-86
2023/06/16 07:40:21;;;;;;;7.90;4.47;;;;;;;;;;10530666;28;20163;-86
2023/06/16 07:45:25;;;;;;;10.35;4.00;;;;;;;;;;10552361;28;20139;-87
2023/06/16 07:50:28;;;;;;;8.50;4.40;;;;;;;;;;10550642;28;20044;-86
2023/06/16 07:55:32;;;;;;;7.28;4.60;;;;;;;;;;10552346;28;20047;-87
2023/06/16 08:00:34;;;;;;;7.55;4.05;;;;;;;;;;10552907;28;20060;-86
2023/06/16 08:05:37;;;;;;;7.53;4.00;;;;;;;;;;10550925;28;20036;-87
2023/06/16 08:10:41;;;;;;;7.70;4.43;;;;;;;;;;10552802;28;20028;-87
2023/06/16 08:21:11;;;;;;;5.97;3.60;;;;;;;;;;10533058;28;20051;-89
2023/06/16 08:26:40;;;;;;;4.88;3.60;;;;;;;;;;10549041;28;20488;-87
2023/06/16 08:31:50;;;;;;;6.72;4.18;;;;;;;;;;10562469;28;20067;-87
2023/06/16 08:37:05;;;;;;;6.15;3.90;;;;;;;;;;10561687;28;20042;-90
2023/06/16 08:42:35;;;;;;;4.80;4.10;;;;;;;;;;10532274;28;20130;-89
2023/06/16 08:47:47;;;;;;;5.50;3.93;;;;;;;;;;10559304;28;20047;-87
2023/06/16 08:52:54;;;;;;;7.68;3.97;;;;;;;;;;10553594;28;20073;-88
2023/06/16 08:58:01;;;;;;;6.45;3.53;;;;;;;;;;10551218;28;20593;-88
2023/06/16 09:03:48;;;;;;;6.47;4.43;;;;;;;;;;10544721;28;20037;-89
2023/06/16 09:09:09;;;;;;;6.63;4.38;;;;;;;;;;10543535;28;20052;-88
2023/06/16 09:14:22;;;;;;;5.50;3.63;;;;;;;;;;10554188;28;20055;-89
2023/06/16 09:19:28;;;;;;;5.07;3.72;;;;;;;;;;10550530;28;20044;-88
2023/06/16 09:24:44;;;;;;;4.35;3.33;;;;;;;;;;10533343;28;20107;-88
2023/06/16 09:29:51;;;;;;;4.90;3.42;;;;;;;;;;10545166;28;20197;-87
2023/06/16 09:35:22;;;;;;;6.25;3.90;;;;;;;;;;10553481;28;20044;-86
2023/06/16 09:40:42;;;;;;;5.40;4.07;;;;;;;;;;10538751;28;20044;-87
2023/06/16 09:46:00;;;;;;;9.00;3.60;;;;;;;;;;10549682;28;20476;-86
2023/06/16 09:51:10;;;;;;;6.80;3.60;;;;;;;;;;10551907;28;20370;-87
2023/06/16 10:02:08;;;;;;;10.93;3.72;;;;;;;;;;10537791;28;20043;-87
2023/06/16 10:07:19;;;;;;;6.50;3.35;;;;;;;;;;10556740;28;20074;-85
2023/06/16 10:12:49;;;;;;;6.68;3.85;;;;;;;;;;10518808;28;20052;-86
2023/06/16 10:18:02;;;;;;;6.15;3.92;;;;;;;;;;10563985;28;20046;-84
2023/06/16 10:23:18;;;;;;;5.88;3.90;;;;;;;;;;10547203;28;20046;-82
2023/06/16 10:28:32;;;;;;;7.82;4.15;;;;;;;;;;10532736;28;20113;-84
2023/06/16 10:33:51;;;;;;;8.23;4.35;;;;;;;;;;10541855;28;20048;-84
2023/06/16 10:39:16;;;;;;;6.70;4.30;;;;;;;;;;10543879;28;20052;-86
2023/06/16 10:44:31;;;;;;;9.05;4.22;;;;;;;;;;10544151;28;20113;-85
2023/06/16 10:49:57;;;;;;;6.38;4.07;;;;;;;;;;10540691;28;20511;-85
2023/06/16 10:55:26;;;;;;;6.70;4.32;;;;;;;;;;10525352;28;20124;-85
2023/06/16 11:00:46;;;;;;;6.57;4.55;;;;;;;;;;10543779;28;20036;-85
2023/06/16 11:06:05;;;;;;;5.45;3.72;;;;;;;;;;10531036;28;20043;-85
2023/06/16 11:11:15;;;;;;;8.93;3.72;;;;;;;;;;10542720;28;20032;-85
2023/06/16 11:16:29;;;;;;;6.88;3.30;;;;;;;;;;10549940;28;20051;-84
2023/06/16 11:21:53;;;;;;;6.05;3.92;;;;;;;;;;10532501;28;20484;-85
2023/06/16 11:27:03;;;;;;;6.05;4.20;;;;;;;;;;10544651;28;20036;-84
2023/06/16 11:32:42;;;;;;;4.93;3.97;;;;;;;;;;10554311;28;20129;-84
2023/06/16 11:37:57;;;;;;;7.95;3.85;;;;;;;;;;10535211;28;20063;-83
2023/06/16 11:43:13;;;;;;;6.38;3.50;;;;;;;;;;10553939;28;20040;-84
2023/06/16 11:48:26;;;;;;;6.75;3.92;;;;;;;;;;10551280;28;20044;-84
2023/06/16 11:53:35;;;;;;;8.43;3.87;;;;;;;;;;10525764;28;20051;-83
2023/06/16 11:58:55;;;;;;;7.15;3.42;;;;;;;;;;10561378;28;20659;-85
2023/06/16 12:04:17;;;;;;;8.98;4.68;;;;;;;;;;10547487;28;20056;-84
2023/06/16 12:09:38;;;;;;;9.18;4.25;;;;;;;;;;10549393;28;20070;-83
2023/06/16 12:14:51;;;;;;;7.47;4.13;;;;;;;;;;10534977;28;20044;-84
2023/06/16 12:20:01;;;;;;;6.00;4.03;;;;;;;;;;10536123;28;20067;-83
2023/06/16 12:25:21;;;;;;;7.03;3.35;;;;;;;;;;10533612;28;20052;-84
2023/06/16 12:30:35;;;;;;;5.05;3.50;;;;;;;;;;10554894;28;20051;-84
2023/06/16 12:35:50;;;;;;;6.38;4.00;;;;;;;;;;10532260;28;20082;-83
2023/06/16 12:40:57;;;;;;;7.07;3.90;;;;;;;;;;10549871;28;20370;-84
2023/06/16 12:46:28;;;;;;;6.65;3.60;;;;;;;;;;10555495;28;20074;-85
2023/06/16 12:51:37;;;;;;;10.93;3.72;;;;;;;;;;10554142;28;20047;-84
2023/06/16 12:56:45;;;;;;;10.10;4.00;;;;;;;;;;10537487;28;20101;-84
2023/06/16 13:02:10;;;;;;;8.65;4.53;;;;;;;;;;10537026;28;20040;-85
2023/06/16 13:12:42;;;;;;;8.85;3.70;;;;;;;;;;10549012;28;20055;-84
2023/06/16 13:17:53;;;;;;;6.88;3.60;;;;;;;;;;10531161;28;20040;-84
2023/06/16 13:23:13;;;;;;;5.65;3.42;;;;;;;;;;10552329;28;20040;-85
2023/06/16 13:34:10;;;;;;;8.65;3.60;;;;;;;;;;10544350;28;20059;-84
2023/06/16 13:39:25;;;;;;;6.30;3.50;;;;;;;;;;10548392;28;20070;-82
2023/06/16 13:44:36;;;;;;;7.85;3.78;;;;;;;;;;10539947;28;20044;-83
2023/06/16 13:49:47;;;;;;;7.05;4.13;;;;;;;;;;10538931;28;20108;-83
2023/06/16 13:54:56;;;;;;;6.78;4.03;;;;;;;;;;10527106;28;20406;-83
2023/06/16 14:00:06;;;;;;;9.43;4.05;;;;;;;;;;10525849;28;20040;-84
2023/06/16 14:05:13;;;;;;;6.35;3.75;;;;;;;;;;10545012;28;20051;-84
2023/06/16 14:10:31;;;;;;;6.32;4.03;;;;;;;;;;10526758;28;20039;-75
2023/06/16 14:15:44;;;;;;;10.50;5.40;;;;;;;;;;10542719;28;20534;-76
2023/06/16 14:20:53;;;;;;;9.40;4.00;;;;;;;;;;10522918;28;20108;-76
2023/06/16 14:31:23;;;;;;;8.05;3.83;;;;;;;;;;10542359;28;20086;-75
2023/06/16 14:36:28;;;;;;;8.30;3.83;;;;;;;;;;10506792;28;20112;-78
2023/06/16 14:41:43;;;;;;;6.38;3.80;;;;;;;;;;10538325;28;20063;-76
2023/06/16 14:46:54;;;;;;;8.65;4.18;;;;;;;;;;10544452;28;20059;-75
2023/06/16 14:52:03;;;;;;;9.65;3.63;;;;;;;;;;10532952;28;20112;-76
2023/06/16 15:02:29;;;;;;;7.22;3.67;;;;;;;;;;10543121;28;20044;-76
2023/06/16 15:07:35;;;;;;;6.80;3.38;;;;;;;;;;10536862;28;20052;-76
2023/06/16 15:12:40;;;;;;;7.32;3.83;;;;;;;;;;10559713;28;20044;-76
2023/06/16 15:17:48;;;;;;;6.43;3.63;;;;;;;;;;10553877;28;20083;-77
2023/06/16 15:22:59;;;;;;;6.87;3.37;;;;;;;;;;10558999;28;20126;-78
2023/06/16 15:28:09;;;;;;;8.57;3.35;;;;;;;;;;10557117;28;20036;-77
2023/06/16 15:33:17;;;;;;;6.68;3.55;;;;;;;;;;10552653;28;20087;-76
2023/06/16 15:38:31;;;;;;;6.55;3.95;;;;;;;;;;10558517;28;20083;-77
2023/06/16 15:43:38;;;;;;;5.22;3.58;;;;;;;;;;10538800;28;20059;-76
2023/06/16 15:48:46;;;;;;;8.05;4.18;;;;;;;;;;10553342;28;20051;-76
2023/06/16 15:53:55;;;;;;;15.93;8.05;;;;;;;;;;10535103;28;20044;-77
2023/06/16 15:59:02;;;;;;;6.53;3.10;;;;;;;;;;10553033;28;20039;-76
2023/06/16 16:04:12;;;;;;;8.70;3.75;;;;;;;;;;10535809;28;20114;-76
2023/06/16 16:09:20;;;;;;;5.82;3.40;;;;;;;;;;10558150;28;20036;-75
2023/06/16 16:14:29;;;;;;;9.52;3.58;;;;;;;;;;10554726;28;20040;-76
2023/06/16 16:19:56;;;;;;;6.32;3.60;;;;;;;;;;10553477;28;20441;-77
2023/06/16 16:25:02;;;;;;;8.32;2.88;;;;;;;;;;10557876;28;20043;-77
2023/06/16 16:30:13;;;;;;;6.35;3.38;;;;;;;;;;10533991;28;20040;-77
2023/06/16 16:40:50;;;;;;;12.02;5.07;;;;;;;;;;10554004;28;20047;-77
2023/06/16 16:45:55;;;;;;;11.85;6.07;;;;;;;;;;10535121;28;20557;-76
2023/06/16 16:51:05;;;;;;;9.40;5.18;;;;;;;;;;10539164;28;20048;-75
2023/06/16 16:56:15;;;;;;;12.13;5.00;;;;;;;;;;10551339;28;20036;-75
2023/06/16 17:01:20;;;;;;;9.25;3.88;;;;;;;;;;10551283;28;20047;-77
2023/06/16 17:06:25;;;;;;;7.00;3.25;;;;;;;;;;10546280;28;20086;-78
2023/06/16 17:11:32;;;;;;;8.98;4.03;;;;;;;;;;10556346;28;20068;-76
2023/06/16 17:16:47;;;;;;;15.02;6.60;;;;;;;;;;10538169;28;20532;-76
2023/06/16 17:21:55;;;;;;;10.45;4.15;;;;;;;;;;10535554;28;20165;-76
2023/06/16 17:27:04;;;;;;;5.95;3.10;;;;;;;;;;10551443;28;20098;-77
2023/06/16 17:32:12;;;;;;;5.15;3.20;;;;;;;;;;10550534;28;20126;-76
2023/06/16 17:37:22;;;;;;;4.93;2.92;;;;;;;;;;10531981;28;20508;-76
2023/06/16 17:42:35;;;;;;;10.82;5.80;;;;;;;;;;10548749;28;20040;-75
2023/06/16 17:47:52;;;;;;;9.25;3.13;;;;;;;;;;10552764;28;20044;-76
2023/06/16 17:53:06;;;;;;;15.50;4.00;;;;;;;;;;10547853;28;20044;-76
2023/06/16 17:58:17;;;;;;;8.07;3.05;;;;;;;;;;10549901;28;20820;-76
2023/06/16 18:03:26;;;;;;;7.00;3.08;;;;;;;;;;10518707;28;20064;-76
2023/06/16 18:08:35;;;;;;;;;;;;;;;;;;10549116;28;20070;-76
2023/06/16 18:19:24;;;;;;;5.50;2.67;;;;;;;;;;10547650;28;20187;-75
2023/06/16 18:24:29;;;;;;;7.93;2.70;;;;;;;;;;10532740;28;20032;-75
2023/06/16 18:29:39;;;;;;;6.72;3.30;;;;;;;;;;10546808;28;20088;-76
2023/06/16 18:34:50;;;;;;;6.13;3.10;;;;;;;;;;10550874;28;20341;-76
2023/06/16 18:39:55;;;;;;;7.95;3.70;;;;;;;;;;10530710;28;20054;-76
2023/06/16 18:45:03;;;;;;;5.60;2.60;;;;;;;;;;10548442;28;20036;-76
2023/06/16 18:50:26;;;;;;;8.02;3.10;;;;;;;;;;10548437;28;20063;-76
2023/06/16 18:55:40;;;;;;;4.88;2.85;;;;;;;;;;10532677;28;20040;-77
2023/06/16 19:00:47;;;;;;;5.77;2.83;;;;;;;;;;10550017;28;20132;-75
2023/06/16 19:05:51;;;;;;;6.60;2.97;;;;;;;;;;10553718;28;20535;-75
2023/06/16 19:11:15;;;;;;;5.63;3.08;;;;;;;;;;10549875;28;20298;-75
2023/06/16 19:16:33;;;;;;;7.18;3.25;;;;;;;;;;10513696;28;20048;-77
2023/06/16 19:21:58;;;;;;;6.88;3.20;;;;;;;;;;10528226;28;20054;-78
2023/06/16 19:27:07;;;;;;;8.77;3.90;;;;;;;;;;10550501;28;20119;-75
2023/06/16 19:32:11;;;;;;;7.57;3.17;;;;;;;;;;10555116;28;20397;-75
2023/06/16 19:37:21;;;;;;;5.05;2.92;;;;;;;;;;10539394;28;20051;-76
2023/06/16 19:42:39;;;;;;;7.63;2.92;;;;;;;;;;10559697;28;20152;-77
2023/06/16 19:47:47;;;;;;;6.40;3.10;;;;;;;;;;10556741;28;20500;-76
2023/06/16 19:52:51;;;;;;;9.90;3.20;;;;;;;;;;10548077;28;20032;-78
2023/06/16 19:58:03;;;;;;;5.32;3.08;;;;;;;;;;10553282;28;20040;-76
2023/06/16 20:03:09;;;;;;;11.68;4.28;;;;;;;;;;10553893;28;20039;-76
2023/06/16 20:08:17;;;;;;;9.00;4.30;;;;;;;;;;10534431;28;20048;-77
2023/06/16 20:13:33;;;;;;;6.85;3.15;;;;;;;;;;10553152;28;20040;-76
2023/06/16 20:18:40;;;;;;;7.03;3.60;;;;;;;;;;10551631;28;20064;-77
2023/06/16 20:23:45;;;;;;;6.75;3.15;;;;;;;;;;10515153;28;20076;-76
2023/06/16 20:28:50;;;;;;;8.02;3.70;;;;;;;;;;10510525;28;20104;-77
2023/06/16 20:34:11;;;;;;;9.65;4.13;;;;;;;;;;10512142;28;20256;-76
2023/06/16 20:39:20;;;;;;;8.25;4.18;;;;;;;;;;10508150;28;20045;-75
2023/06/16 20:44:36;;;;;;;;;;;;;;;;;;10504832;28;20040;-76
2023/06/16 20:49:45;;;;;;;5.72;3.15;;;;;;;;;;10511835;28;19920;-75
2023/06/16 20:54:56;;;;;;;7.97;4.28;;;;;;;;;;10508473;28;20032;-76
2023/06/16 21:00:06;;;;;;;11.45;4.85;;;;;;;;;;10509850;28;20032;-76
2023/06/16 21:05:15;;;;;;;6.45;3.30;;;;;;;;;;10514278;28;20040;-76
2023/06/16 21:10:20;;;;;;;4.22;2.45;;;;;;;;;;10509938;28;20047;-76
2023/06/16 21:15:28;;;;;;;7.80;3.47;;;;;;;;;;10525210;28;20062;-77
2023/06/16 21:20:38;;;;;;;7.75;3.92;;;;;;;;;;10526587;28;20036;-76
2023/06/16 21:25:43;;;;;;;4.10;2.75;;;;;;;;;;10546848;28;20055;-77
2023/06/16 21:30:48;;;;;;;6.35;3.78;;;;;;;;;;10524185;28;20096;-77
2023/06/16 21:36:02;;;;;;;8.18;4.43;;;;;;;;;;10531205;28;20514;-76
2023/06/16 21:41:09;;;;;;;7.82;3.50;;;;;;;;;;10529437;28;20521;-75
2023/06/16 21:46:14;;;;;;;10.02;4.45;;;;;;;;;;10551205;28;20102;-77
2023/06/16 21:51:21;;;;;;;8.00;4.43;;;;;;;;;;10550668;28;20109;-76
2023/06/16 21:56:30;;;;;;;7.63;3.88;;;;;;;;;;10534920;28;20137;-76
2023/06/16 22:01:36;;;;;;;6.90;3.60;;;;;;;;;;10555449;28;20036;-77
2023/06/16 22:06:47;;;;;;;8.73;4.20;;;;;;;;;;10550101;28;20032;-76
2023/06/16 22:12:06;;;;;;;7.93;4.07;;;;;;;;;;10554405;28;20032;-77
2023/06/16 22:17:20;;;;;;;11.20;4.03;;;;;;;;;;10531464;28;20307;-77
2023/06/16 22:22:33;;;;;;;8.02;4.15;;;;;;;;;;10551332;28;20802;-76
2023/06/16 22:27:42;;;;;;;7.68;3.78;;;;;;;;;;10553114;28;20044;-76
2023/06/16 22:32:53;;;;;;;8.60;4.40;;;;;;;;;;10548598;28;20078;-77
2023/06/16 22:38:06;;;;;;;6.90;3.70;;;;;;;;;;10547837;28;20055;-77
2023/06/16 22:43:16;;;;;;;9.20;4.43;;;;;;;;;;10551021;28;20089;-77
2023/06/16 22:48:26;;;;;;;8.77;3.50;;;;;;;;;;10529935;28;20056;-76
2023/06/16 22:53:36;;;;;;;5.35;2.90;;;;;;;;;;10553222;28;20032;-76
2023/06/16 22:58:40;;;;;;;9.00;3.88;;;;;;;;;;10553418;28;20086;-76
2023/06/16 23:03:47;;;;;;;8.95;4.25;;;;;;;;;;10532227;28;20522;-76
2023/06/16 23:08:54;;;;;;;9.90;4.13;;;;;;;;;;10551865;28;20161;-75
2023/06/16 23:14:00;;;;;;;2.92;2.03;;;;;;;;;;10557951;28;20470;-75
2023/06/16 23:19:08;;;;;;;6.20;3.40;;;;;;;;;;10557799;28;20478;-75
2023/06/16 23:24:21;;;;;;;8.05;3.95;;;;;;;;;;10549147;28;20067;-76
2023/06/16 23:29:33;;;;;;;6.70;3.60;;;;;;;;;;10537548;28;20044;-75
2023/06/16 23:34:45;;;;;;;7.78;3.72;;;;;;;;;;10558931;28;20048;-77
2023/06/16 23:39:52;;;;;;;7.70;3.70;;;;;;;;;;10558312;28;20040;-75
2023/06/16 23:45:05;;;;;;;4.28;2.53;;;;;;;;;;10541502;28;20048;-76
2023/06/16 23:50:19;;;;;;;6.47;3.47;;;;;;;;;;10554022;28;20044;-75
2023/06/16 23:55:29;;;;;;;6.38;2.40;;;;;;;;;;10556548;28;20046;-75
